sensor_id;sensor_type;location;lat;lon;timestamp;pressure;altitude;pressure_sealevel;temperature;humidity
45040;BME280;30778;53.574;7.770;2023-04-01T00:02:18;99324.84;;;7.48;59.15
45040;BME280;30778;53.574;7.770;2023-04-01T00:04:44;99322.25;;;7.48;58.78
45040;BME280;30778;53.574;7.770;2023-04-01T00:07:10;99314.13;;;7.54;58.47
45040;BME280;30778;53.574;7.770;2023-04-01T00:09:36;99323.78;;;7.35;59.10
45040;BME280;30778;53.574;7.770;2023-04-01T00:12:01;99323.72;;;7.36;59.06
45040;BME280;30778;53.574;7.770;2023-04-01T00:14:27;99320.72;;;7.44;58.91
45040;BME280;30778;53.574;7.770;2023-04-01T00:16:52;99321.34;;;7.49;58.46
45040;BME280;30778;53.574;7.770;2023-04-01T00:19:18;99321.41;;;7.47;58.92
45040;BME280;30778;53.574;7.770;2023-04-01T00:21:44;99326.09;;;7.41;59.17
45040;BME280;30778;53.574;7.770;2023-04-01T00:24:09;99328.22;;;7.50;59.19
45040;BME280;30778;53.574;7.770;2023-04-01T00:26:35;99329.44;;;7.43;59.23
45040;BME280;30778;53.574;7.770;2023-04-01T00:29:00;99326.69;;;7.46;59.39
45040;BME280;30778;53.574;7.770;2023-04-01T00:31:26;99324.53;;;7.54;59.10
45040;BME280;30778;53.574;7.770;2023-04-01T00:33:52;99327.47;;;7.30;59.55
45040;BME280;30778;53.574;7.770;2023-04-01T00:36:20;99327.75;;;7.59;59.09
45040;BME280;30778;53.574;7.770;2023-04-01T00:38:47;99324.00;;;7.65;58.90
45040;BME280;30778;53.574;7.770;2023-04-01T00:41:14;99327.44;;;7.65;58.88
45040;BME280;30778;53.574;7.770;2023-04-01T00:43:41;99324.31;;;7.59;59.25
45040;BME280;30778;53.574;7.770;2023-04-01T00:46:06;99321.47;;;7.63;59.01
45040;BME280;30778;53.574;7.770;2023-04-01T00:48:38;99321.25;;;7.68;59.32
45040;BME280;30778;53.574;7.770;2023-04-01T00:51:08;99318.50;;;7.53;59.45
45040;BME280;30778;53.574;7.770;2023-04-01T00:53:39;99326.50;;;7.66;59.38
45040;BME280;30778;53.574;7.770;2023-04-01T00:56:15;99325.09;;;7.61;59.43
45040;BME280;30778;53.574;7.770;2023-04-01T00:58:49;99330.53;;;7.56;59.27
45040;BME280;30778;53.574;7.770;2023-04-01T01:01:16;99320.41;;;7.67;59.34
45040;BME280;30778;53.574;7.770;2023-04-01T01:03:42;99322.59;;;7.75;59.21
45040;BME280;30778;53.574;7.770;2023-04-01T01:11:28;99328.47;;;7.79;58.88
45040;BME280;30778;53.574;7.770;2023-04-01T01:16:39;99331.81;;;7.65;59.25
45040;BME280;30778;53.574;7.770;2023-04-01T01:30:51;99327.13;;;7.71;59.12
45040;BME280;30778;53.574;7.770;2023-04-01T01:36:06;99332.69;;;7.81;58.62
45040;BME280;30778;53.574;7.770;2023-04-01T01:38:35;99328.31;;;7.82;59.07
45040;BME280;30778;53.574;7.770;2023-04-01T01:41:05;99332.22;;;7.73;58.83
45040;BME280;30778;53.574;7.770;2023-04-01T01:43:37;99331.16;;;7.77;59.03
45040;BME280;30778;53.574;7.770;2023-04-01T01:46:09;99330.16;;;7.80;58.92
45040;BME280;30778;53.574;7.770;2023-04-01T01:48:37;99336.03;;;7.83;58.78
45040;BME280;30778;53.574;7.770;2023-04-01T01:51:07;99337.03;;;7.81;58.70
45040;BME280;30778;53.574;7.770;2023-04-01T01:53:33;99335.03;;;7.86;58.78
45040;BME280;30778;53.574;7.770;2023-04-01T01:55:59;99331.97;;;7.78;59.09
45040;BME280;30778;53.574;7.770;2023-04-01T01:58:39;99336.69;;;7.87;58.60
45040;BME280;30778;53.574;7.770;2023-04-01T02:01:14;99339.50;;;7.66;59.18
45040;BME280;30778;53.574;7.770;2023-04-01T02:03:43;99345.41;;;7.70;59.48
45040;BME280;30778;53.574;7.770;2023-04-01T02:06:13;99346.25;;;7.70;59.65
45040;BME280;30778;53.574;7.770;2023-04-01T02:08:52;99344.56;;;7.69;59.81
45040;BME280;30778;53.574;7.770;2023-04-01T02:11:26;99347.25;;;7.68;59.88
45040;BME280;30778;53.574;7.770;2023-04-01T02:13:56;99350.94;;;7.80;59.20
45040;BME280;30778;53.574;7.770;2023-04-01T02:16:28;99353.66;;;7.78;59.55
45040;BME280;30778;53.574;7.770;2023-04-01T02:18:58;99353.13;;;7.71;59.61
45040;BME280;30778;53.574;7.770;2023-04-01T02:21:28;99357.22;;;7.76;59.46
45040;BME280;30778;53.574;7.770;2023-04-01T02:23:56;99363.06;;;7.81;59.31
45040;BME280;30778;53.574;7.770;2023-04-01T02:26:24;99352.66;;;7.81;59.45
45040;BME280;30778;53.574;7.770;2023-04-01T02:28:52;99357.03;;;7.80;59.29
45040;BME280;30778;53.574;7.770;2023-04-01T02:31:19;99358.47;;;7.68;59.88
45040;BME280;30778;53.574;7.770;2023-04-01T02:33:46;99357.66;;;7.68;59.57
45040;BME280;30778;53.574;7.770;2023-04-01T02:36:13;99360.44;;;7.81;59.41
45040;BME280;30778;53.574;7.770;2023-04-01T02:38:40;99360.59;;;7.78;59.62
45040;BME280;30778;53.574;7.770;2023-04-01T02:41:05;99363.88;;;7.81;59.45
45040;BME280;30778;53.574;7.770;2023-04-01T02:43:32;99368.41;;;7.78;59.56
45040;BME280;30778;53.574;7.770;2023-04-01T02:45:58;99365.50;;;7.66;59.95
45040;BME280;30778;53.574;7.770;2023-04-01T02:48:23;99369.78;;;7.85;59.20
45040;BME280;30778;53.574;7.770;2023-04-01T02:50:50;99367.00;;;7.88;59.21
45040;BME280;30778;53.574;7.770;2023-04-01T02:53:16;99366.94;;;7.89;59.18
45040;BME280;30778;53.574;7.770;2023-04-01T02:55:42;99367.84;;;7.88;59.32
45040;BME280;30778;53.574;7.770;2023-04-01T02:58:07;99371.94;;;7.77;59.56
45040;BME280;30778;53.574;7.770;2023-04-01T03:00:33;99370.75;;;7.82;59.50
45040;BME280;30778;53.574;7.770;2023-04-01T03:02:59;99381.59;;;7.90;59.43
45040;BME280;30778;53.574;7.770;2023-04-01T03:05:25;99378.31;;;7.87;59.48
45040;BME280;30778;53.574;7.770;2023-04-01T03:07:50;99381.16;;;7.82;59.66
45040;BME280;30778;53.574;7.770;2023-04-01T03:10:16;99392.75;;;7.77;59.98
45040;BME280;30778;53.574;7.770;2023-04-01T03:12:42;99386.06;;;7.88;59.60
45040;BME280;30778;53.574;7.770;2023-04-01T03:15:10;99379.84;;;7.91;59.54
45040;BME280;30778;53.574;7.770;2023-04-01T03:17:35;99383.19;;;7.93;59.31
45040;BME280;30778;53.574;7.770;2023-04-01T03:20:01;99384.91;;;7.94;59.35
45040;BME280;30778;53.574;7.770;2023-04-01T03:22:28;99375.69;;;7.71;59.91
45040;BME280;30778;53.574;7.770;2023-04-01T03:24:53;99382.13;;;7.97;59.14
45040;BME280;30778;53.574;7.770;2023-04-01T03:27:19;99380.00;;;7.88;59.38
45040;BME280;30778;53.574;7.770;2023-04-01T03:29:44;99386.63;;;7.93;59.15
45040;BME280;30778;53.574;7.770;2023-04-01T03:32:11;99387.22;;;7.83;59.43
45040;BME280;30778;53.574;7.770;2023-04-01T03:34:37;99395.44;;;7.91;59.33
45040;BME280;30778;53.574;7.770;2023-04-01T03:37:02;99394.38;;;7.95;59.44
45040;BME280;30778;53.574;7.770;2023-04-01T03:39:30;99391.94;;;7.92;59.53
45040;BME280;30778;53.574;7.770;2023-04-01T03:41:56;99400.50;;;7.94;59.24
45040;BME280;30778;53.574;7.770;2023-04-01T03:44:21;99398.66;;;7.96;59.50
45040;BME280;30778;53.574;7.770;2023-04-01T03:46:50;99405.38;;;8.00;58.87
45040;BME280;30778;53.574;7.770;2023-04-01T03:49:16;99403.44;;;7.88;59.52
45040;BME280;30778;53.574;7.770;2023-04-01T03:51:43;99406.09;;;7.86;59.33
45040;BME280;30778;53.574;7.770;2023-04-01T03:54:09;99404.94;;;7.92;59.26
45040;BME280;30778;53.574;7.770;2023-04-01T03:56:36;99411.50;;;7.99;59.38
45040;BME280;30778;53.574;7.770;2023-04-01T03:59:03;99414.03;;;7.67;60.09
45040;BME280;30778;53.574;7.770;2023-04-01T04:01:29;99411.50;;;7.99;59.14
45040;BME280;30778;53.574;7.770;2023-04-01T04:03:56;99410.44;;;8.03;59.19
45040;BME280;30778;53.574;7.770;2023-04-01T04:06:22;99416.19;;;7.92;59.20
45040;BME280;30778;53.574;7.770;2023-04-01T04:08:48;99418.56;;;7.97;59.37
45040;BME280;30778;53.574;7.770;2023-04-01T04:11:15;99427.88;;;8.01;59.11
45040;BME280;30778;53.574;7.770;2023-04-01T04:13:42;99425.09;;;8.04;59.11
45040;BME280;30778;53.574;7.770;2023-04-01T04:16:09;99420.47;;;7.93;59.50
45040;BME280;30778;53.574;7.770;2023-04-01T04:18:38;99422.38;;;8.07;59.08
45040;BME280;30778;53.574;7.770;2023-04-01T04:21:03;99425.34;;;8.00;59.35
45040;BME280;30778;53.574;7.770;2023-04-01T04:23:29;99423.38;;;8.05;59.15
45040;BME280;30778;53.574;7.770;2023-04-01T04:25:59;99436.53;;;8.02;59.10
45040;BME280;30778;53.574;7.770;2023-04-01T04:28:27;99433.84;;;8.03;59.29
45040;BME280;30778;53.574;7.770;2023-04-01T04:30:55;99440.34;;;8.12;59.10
45040;BME280;30778;53.574;7.770;2023-04-01T04:33:24;99438.88;;;8.06;58.94
45040;BME280;30778;53.574;7.770;2023-04-01T04:35:51;99443.00;;;8.10;58.94
45040;BME280;30778;53.574;7.770;2023-04-01T04:38:17;99447.97;;;7.82;59.43
45040;BME280;30778;53.574;7.770;2023-04-01T04:40:43;99452.19;;;8.00;59.14
45040;BME280;30778;53.574;7.770;2023-04-01T04:43:11;99449.78;;;7.97;59.52
45040;BME280;30778;53.574;7.770;2023-04-01T04:45:41;99456.50;;;8.01;59.33
45040;BME280;30778;53.574;7.770;2023-04-01T04:48:10;99459.47;;;7.93;59.50
45040;BME280;30778;53.574;7.770;2023-04-01T04:50:40;99462.41;;;7.87;59.88
45040;BME280;30778;53.574;7.770;2023-04-01T04:53:05;99459.59;;;7.92;59.69
45040;BME280;30778;53.574;7.770;2023-04-01T04:55:32;99461.88;;;7.98;59.38
45040;BME280;30778;53.574;7.770;2023-04-01T04:58:16;99464.53;;;7.97;59.48
45040;BME280;30778;53.574;7.770;2023-04-01T05:00:44;99472.03;;;8.03;59.31
45040;BME280;30778;53.574;7.770;2023-04-01T05:03:18;99467.81;;;8.00;59.25
45040;BME280;30778;53.574;7.770;2023-04-01T05:05:51;99468.47;;;7.88;59.30
45040;BME280;30778;53.574;7.770;2023-04-01T05:08:17;99467.94;;;7.81;59.75
45040;BME280;30778;53.574;7.770;2023-04-01T05:10:42;99475.03;;;7.95;59.32
45040;BME280;30778;53.574;7.770;2023-04-01T05:13:08;99481.22;;;7.92;59.12
45040;BME280;30778;53.574;7.770;2023-04-01T05:15:35;99480.94;;;7.81;59.90
45040;BME280;30778;53.574;7.770;2023-04-01T05:18:01;99483.00;;;7.74;59.95
45040;BME280;30778;53.574;7.770;2023-04-01T05:20:26;99483.22;;;7.87;59.28
45040;BME280;30778;53.574;7.770;2023-04-01T05:22:56;99488.75;;;7.81;59.57
45040;BME280;30778;53.574;7.770;2023-04-01T05:25:21;99490.81;;;7.74;59.72
45040;BME280;30778;53.574;7.770;2023-04-01T05:27:47;99497.53;;;7.79;59.74
45040;BME280;30778;53.574;7.770;2023-04-01T05:30:13;99498.91;;;7.68;60.21
45040;BME280;30778;53.574;7.770;2023-04-01T05:32:58;99505.94;;;7.84;59.57
45040;BME280;30778;53.574;7.770;2023-04-01T05:35:24;99503.66;;;7.95;59.30
45040;BME280;30778;53.574;7.770;2023-04-01T05:37:50;99505.47;;;7.76;59.91
45040;BME280;30778;53.574;7.770;2023-04-01T05:40:15;99506.78;;;7.84;59.48
45040;BME280;30778;53.574;7.770;2023-04-01T05:42:44;99505.19;;;7.82;59.73
45040;BME280;30778;53.574;7.770;2023-04-01T05:45:10;99511.91;;;7.86;59.74
45040;BME280;30778;53.574;7.770;2023-04-01T05:47:59;99511.16;;;7.84;59.84
45040;BME280;30778;53.574;7.770;2023-04-01T05:50:26;99518.59;;;7.91;59.44
45040;BME280;30778;53.574;7.770;2023-04-01T05:52:52;99516.81;;;7.92;59.69
45040;BME280;30778;53.574;7.770;2023-04-01T05:55:18;99528.81;;;7.94;59.45
45040;BME280;30778;53.574;7.770;2023-04-01T05:57:45;99531.19;;;7.82;59.52
45040;BME280;30778;53.574;7.770;2023-04-01T06:00:12;99540.94;;;7.78;59.67
45040;BME280;30778;53.574;7.770;2023-04-01T06:02:38;99538.75;;;7.69;59.90
45040;BME280;30778;53.574;7.770;2023-04-01T06:05:21;99540.47;;;7.87;59.54
45040;BME280;30778;53.574;7.770;2023-04-01T06:07:47;99540.00;;;7.97;59.44
45040;BME280;30778;53.574;7.770;2023-04-01T06:10:18;99552.16;;;7.79;59.85
45040;BME280;30778;53.574;7.770;2023-04-01T06:12:54;99547.56;;;7.66;60.52
45040;BME280;30778;53.574;7.770;2023-04-01T06:15:53;99547.81;;;7.79;59.83
45040;BME280;30778;53.574;7.770;2023-04-01T06:26:39;99560.03;;;7.77;59.84
45040;BME280;30778;53.574;7.770;2023-04-01T06:29:29;99569.16;;;7.86;59.68
45040;BME280;30778;53.574;7.770;2023-04-01T06:34:50;99581.28;;;7.12;60.46
45040;BME280;30778;53.574;7.770;2023-04-01T06:37:27;99585.44;;;6.98;59.70
45040;BME280;30778;53.574;7.770;2023-04-01T06:40:12;99604.41;;;6.60;59.95
45040;BME280;30778;53.574;7.770;2023-04-01T06:42:57;99609.25;;;6.27;60.33
45040;BME280;30778;53.574;7.770;2023-04-01T06:49:12;99619.84;;;5.80;61.39
45040;BME280;30778;53.574;7.770;2023-04-01T06:52:12;99627.84;;;5.96;60.98
45040;BME280;30778;53.574;7.770;2023-04-01T06:55:17;99634.44;;;5.82;60.98
45040;BME280;30778;53.574;7.770;2023-04-01T06:58:04;99638.41;;;5.69;60.99
45040;BME280;30778;53.574;7.770;2023-04-01T07:00:37;99627.91;;;5.72;61.08
45040;BME280;30778;53.574;7.770;2023-04-01T07:05:45;99639.97;;;5.51;61.47
45040;BME280;30778;53.574;7.770;2023-04-01T07:08:25;99640.41;;;5.84;60.57
45040;BME280;30778;53.574;7.770;2023-04-01T07:10:56;99648.28;;;5.14;62.01
45040;BME280;30778;53.574;7.770;2023-04-01T07:13:54;99655.84;;;5.20;61.70
45040;BME280;30778;53.574;7.770;2023-04-01T07:16:30;99659.47;;;5.38;61.25
45040;BME280;30778;53.574;7.770;2023-04-01T07:19:18;99661.78;;;5.45;60.91
45040;BME280;30778;53.574;7.770;2023-04-01T07:22:14;99676.47;;;5.45;61.24
45040;BME280;30778;53.574;7.770;2023-04-01T07:25:17;99677.16;;;5.50;60.22
45040;BME280;30778;53.574;7.770;2023-04-01T07:27:53;99688.25;;;5.54;60.27
45040;BME280;30778;53.574;7.770;2023-04-01T07:30:23;99687.97;;;5.61;59.93
45040;BME280;30778;53.574;7.770;2023-04-01T07:32:58;99693.22;;;5.36;60.48
45040;BME280;30778;53.574;7.770;2023-04-01T07:35:32;99702.00;;;5.32;60.41
45040;BME280;30778;53.574;7.770;2023-04-01T07:38:05;99713.09;;;5.36;60.81
45040;BME280;30778;53.574;7.770;2023-04-01T07:40:47;99709.56;;;5.62;59.61
45040;BME280;30778;53.574;7.770;2023-04-01T07:43:54;99717.25;;;5.63;59.91
45040;BME280;30778;53.574;7.770;2023-04-01T07:52:00;99733.72;;;5.39;60.07
45040;BME280;30778;53.574;7.770;2023-04-01T07:54:34;99730.00;;;5.22;60.20
45040;BME280;30778;53.574;7.770;2023-04-01T07:59:59;99738.31;;;5.07;60.30
45040;BME280;30778;53.574;7.770;2023-04-01T08:03:02;99744.75;;;5.20;60.23
45040;BME280;30778;53.574;7.770;2023-04-01T08:05:53;99747.75;;;5.33;59.94
45040;BME280;30778;53.574;7.770;2023-04-01T08:20:53;99782.81;;;5.18;59.80
45040;BME280;30778;53.574;7.770;2023-04-01T08:23:33;99784.69;;;5.15;59.66
45040;BME280;30778;53.574;7.770;2023-04-01T08:26:16;99790.78;;;5.12;59.40
45040;BME280;30778;53.574;7.770;2023-04-01T08:29:10;99797.53;;;4.93;60.35
45040;BME280;30778;53.574;7.770;2023-04-01T08:34:23;99799.00;;;5.00;59.79
45040;BME280;30778;53.574;7.770;2023-04-01T08:37:00;99808.50;;;4.99;60.04
45040;BME280;30778;53.574;7.770;2023-04-01T08:39:37;99811.16;;;5.48;59.32
45040;BME280;30778;53.574;7.770;2023-04-01T08:51:47;99823.94;;;5.02;59.67
45040;BME280;30778;53.574;7.770;2023-04-01T08:56:41;99839.94;;;4.89;59.48
45040;BME280;30778;53.574;7.770;2023-04-01T09:14:35;99864.88;;;5.18;58.51
45040;BME280;30778;53.574;7.770;2023-04-01T09:17:38;99866.41;;;5.23;57.54
45040;BME280;30778;53.574;7.770;2023-04-01T09:37:47;99894.50;;;5.36;56.77
45040;BME280;30778;53.574;7.770;2023-04-01T09:40:28;99901.22;;;5.90;56.22
45040;BME280;30778;53.574;7.770;2023-04-01T09:48:29;99919.00;;;5.25;57.43
45040;BME280;30778;53.574;7.770;2023-04-01T09:53:40;99926.56;;;5.58;56.76
45040;BME280;30778;53.574;7.770;2023-04-01T09:59:43;99935.75;;;5.42;57.20
45040;BME280;30778;53.574;7.770;2023-04-01T10:08:20;99949.53;;;5.17;57.18
45040;BME280;30778;53.574;7.770;2023-04-01T10:17:00;99970.28;;;5.16;56.67
45040;BME280;30778;53.574;7.770;2023-04-01T10:19:54;99967.66;;;4.89;56.94
45040;BME280;30778;53.574;7.770;2023-04-01T10:36:47;99990.16;;;5.69;55.70
45040;BME280;30778;53.574;7.770;2023-04-01T10:42:35;99993.72;;;5.66;55.46
45040;BME280;30778;53.574;7.770;2023-04-01T10:54:13;100003.53;;;5.56;55.17
45040;BME280;30778;53.574;7.770;2023-04-01T10:57:40;100013.81;;;5.84;54.28
45040;BME280;30778;53.574;7.770;2023-04-01T11:18:41;100052.78;;;5.83;54.41
45040;BME280;30778;53.574;7.770;2023-04-01T11:21:46;100041.78;;;5.75;54.38
45040;BME280;30778;53.574;7.770;2023-04-01T11:28:04;100060.53;;;5.83;53.74
45040;BME280;30778;53.574;7.770;2023-04-01T11:33:29;100067.72;;;5.75;53.72
45040;BME280;30778;53.574;7.770;2023-04-01T12:16:34;100161.19;;;5.98;52.63
45040;BME280;30778;53.574;7.770;2023-04-01T12:19:43;100165.88;;;5.87;53.24
45040;BME280;30778;53.574;7.770;2023-04-01T12:28:19;100177.13;;;5.59;53.76
45040;BME280;30778;53.574;7.770;2023-04-01T12:45:17;100201.88;;;5.40;54.80
45040;BME280;30778;53.574;7.770;2023-04-01T13:05:38;100240.66;;;5.43;53.04
45040;BME280;30778;53.574;7.770;2023-04-01T13:10:30;100248.38;;;5.46;52.88
45040;BME280;30778;53.574;7.770;2023-04-01T13:15:52;100264.38;;;5.29;53.46
45040;BME280;30778;53.574;7.770;2023-04-01T13:28:53;100283.97;;;5.08;54.74
45040;BME280;30778;53.574;7.770;2023-04-01T13:31:50;100282.38;;;5.02;54.42
45040;BME280;30778;53.574;7.770;2023-04-01T13:42:26;100315.19;;;4.30;56.41
45040;BME280;30778;53.574;7.770;2023-04-01T13:45:03;100295.25;;;4.70;55.45
45040;BME280;30778;53.574;7.770;2023-04-01T13:50:42;100305.72;;;4.65;55.15
45040;BME280;30778;53.574;7.770;2023-04-01T13:53:29;100320.88;;;4.80;54.35
45040;BME280;30778;53.574;7.770;2023-04-01T14:10:36;100364.09;;;4.00;55.84
45040;BME280;30778;53.574;7.770;2023-04-01T14:18:40;100394.56;;;4.28;55.17
45040;BME280;30778;53.574;7.770;2023-04-01T14:21:16;100381.66;;;4.27;55.08
45040;BME280;30778;53.574;7.770;2023-04-01T14:35:35;100402.00;;;4.03;55.58
45040;BME280;30778;53.574;7.770;2023-04-01T14:38:05;100417.84;;;4.28;55.15
45040;BME280;30778;53.574;7.770;2023-04-01T14:40:52;100423.84;;;4.30;54.96
45040;BME280;30778;53.574;7.770;2023-04-01T14:51:46;100434.53;;;4.13;54.24
45040;BME280;30778;53.574;7.770;2023-04-01T14:54:18;100437.09;;;4.13;54.43
45040;BME280;30778;53.574;7.770;2023-04-01T14:59:29;100448.13;;;4.23;53.64
45040;BME280;30778;53.574;7.770;2023-04-01T15:04:57;100462.53;;;3.91;54.67
45040;BME280;30778;53.574;7.770;2023-04-01T15:19:18;100488.22;;;4.00;53.45
45040;BME280;30778;53.574;7.770;2023-04-01T15:21:43;100494.09;;;4.10;53.01
45040;BME280;30778;53.574;7.770;2023-04-01T15:26:51;100516.78;;;4.41;52.25
45040;BME280;30778;53.574;7.770;2023-04-01T15:31:50;100510.88;;;4.33;53.04
45040;BME280;30778;53.574;7.770;2023-04-01T15:34:26;100520.25;;;3.93;53.49
45040;BME280;30778;53.574;7.770;2023-04-01T15:37:02;100531.75;;;3.77;53.79
45040;BME280;30778;53.574;7.770;2023-04-01T15:39:49;100531.97;;;4.11;53.45
45040;BME280;30778;53.574;7.770;2023-04-01T15:42:38;100536.97;;;3.74;53.87
45040;BME280;30778;53.574;7.770;2023-04-01T15:47:46;100545.06;;;4.04;53.40
45040;BME280;30778;53.574;7.770;2023-04-01T15:50:33;100560.28;;;3.69;53.99
45040;BME280;30778;53.574;7.770;2023-04-01T15:53:18;100564.19;;;3.95;53.98
45040;BME280;30778;53.574;7.770;2023-04-01T15:58:43;100559.03;;;3.93;53.57
45040;BME280;30778;53.574;7.770;2023-04-01T16:12:25;100604.44;;;3.57;53.82
45040;BME280;30778;53.574;7.770;2023-04-01T16:15:19;100607.63;;;3.74;53.15
45040;BME280;30778;53.574;7.770;2023-04-01T16:17:59;100615.25;;;3.80;53.25
45040;BME280;30778;53.574;7.770;2023-04-01T16:26:33;100628.53;;;3.59;53.76
45040;BME280;30778;53.574;7.770;2023-04-01T16:29:17;100631.22;;;3.51;53.30
45040;BME280;30778;53.574;7.770;2023-04-01T16:38:07;100644.81;;;3.63;53.32
45040;BME280;30778;53.574;7.770;2023-04-01T16:40:57;100652.13;;;3.34;53.63
45040;BME280;30778;53.574;7.770;2023-04-01T16:43:45;100665.84;;;3.39;53.88
45040;BME280;30778;53.574;7.770;2023-04-01T16:46:32;100673.53;;;3.44;53.85
45040;BME280;30778;53.574;7.770;2023-04-01T16:55:16;100690.38;;;3.03;54.66
45040;BME280;30778;53.574;7.770;2023-04-01T16:57:26;100697.09;;;3.16;54.77
45040;BME280;30778;53.574;7.770;2023-04-01T17:02:35;100709.34;;;3.01;54.83
45040;BME280;30778;53.574;7.770;2023-04-01T17:05:08;100712.13;;;2.79;55.48
45040;BME280;30778;53.574;7.770;2023-04-01T17:10:28;100731.94;;;2.79;55.32
45040;BME280;30778;53.574;7.770;2023-04-01T17:16:19;100744.59;;;3.03;54.42
45040;BME280;30778;53.574;7.770;2023-04-01T17:18:59;100759.63;;;2.63;55.09
45040;BME280;30778;53.574;7.770;2023-04-01T17:21:57;100756.94;;;2.73;54.91
45040;BME280;30778;53.574;7.770;2023-04-01T17:38:02;100792.66;;;3.13;53.83
45040;BME280;30778;53.574;7.770;2023-04-01T17:48:29;100826.00;;;2.41;54.87
45040;BME280;30778;53.574;7.770;2023-04-01T17:51:09;100828.59;;;2.41;54.27
45040;BME280;30778;53.574;7.770;2023-04-01T17:54:14;100833.91;;;2.16;54.28
45040;BME280;30778;53.574;7.770;2023-04-01T17:59:39;100846.50;;;2.61;53.48
45040;BME280;30778;53.574;7.770;2023-04-01T18:02:18;100853.38;;;2.65;53.00
45040;BME280;30778;53.574;7.770;2023-04-01T18:08:09;100862.94;;;2.44;53.74
45040;BME280;30778;53.574;7.770;2023-04-01T18:11:08;100874.78;;;2.73;52.81
45040;BME280;30778;53.574;7.770;2023-04-01T18:18:59;100896.31;;;2.70;52.57
45040;BME280;30778;53.574;7.770;2023-04-01T18:21:49;100900.72;;;2.56;53.04
45040;BME280;30778;53.574;7.770;2023-04-01T18:24:41;100917.13;;;2.49;52.59
45040;BME280;30778;53.574;7.770;2023-04-01T18:32:26;100943.66;;;2.69;51.71
45040;BME280;30778;53.574;7.770;2023-04-01T18:45:47;100967.16;;;2.03;52.92
45040;BME280;30778;53.574;7.770;2023-04-01T18:57:19;100991.88;;;2.55;51.39
45040;BME280;30778;53.574;7.770;2023-04-01T19:00:04;100994.50;;;2.44;51.51
45040;BME280;30778;53.574;7.770;2023-04-01T19:02:46;101002.16;;;2.64;51.14
45040;BME280;30778;53.574;7.770;2023-04-01T19:05:21;101001.38;;;2.48;51.19
45040;BME280;30778;53.574;7.770;2023-04-01T19:07:53;101018.50;;;2.66;50.86
45040;BME280;30778;53.574;7.770;2023-04-01T19:10:40;101019.56;;;2.22;51.65
45040;BME280;30778;53.574;7.770;2023-04-01T19:18:36;101041.06;;;2.03;51.91
45040;BME280;30778;53.574;7.770;2023-04-01T19:21:41;101046.22;;;2.00;52.21
45040;BME280;30778;53.574;7.770;2023-04-01T19:40:38;101077.00;;;2.67;50.40
45040;BME280;30778;53.574;7.770;2023-04-01T19:43:46;101077.13;;;2.20;50.90
45040;BME280;30778;53.574;7.770;2023-04-01T19:46:36;101085.72;;;2.40;50.79
45040;BME280;30778;53.574;7.770;2023-04-01T19:49:26;101091.78;;;2.18;51.13
45040;BME280;30778;53.574;7.770;2023-04-01T19:57:47;101123.59;;;2.07;51.06
45040;BME280;30778;53.574;7.770;2023-04-01T20:00:22;101117.53;;;2.13;51.18
45040;BME280;30778;53.574;7.770;2023-04-01T20:07:52;101123.56;;;2.18;50.67
45040;BME280;30778;53.574;7.770;2023-04-01T20:10:24;101147.63;;;2.03;51.02
45040;BME280;30778;53.574;7.770;2023-04-01T20:16:01;101146.78;;;2.17;50.15
45040;BME280;30778;53.574;7.770;2023-04-01T20:18:54;101159.69;;;2.12;49.70
45040;BME280;30778;53.574;7.770;2023-04-01T20:21:24;101160.53;;;2.23;49.40
45040;BME280;30778;53.574;7.770;2023-04-01T20:23:56;101164.84;;;1.98;49.59
45040;BME280;30778;53.574;7.770;2023-04-01T20:26:33;101173.41;;;1.89;49.47
45040;BME280;30778;53.574;7.770;2023-04-01T20:32:04;101187.16;;;1.76;49.03
45040;BME280;30778;53.574;7.770;2023-04-01T20:35:00;101193.16;;;1.78;49.36
45040;BME280;30778;53.574;7.770;2023-04-01T20:37:34;101197.47;;;1.85;48.90
45040;BME280;30778;53.574;7.770;2023-04-01T20:40:25;101210.28;;;1.55;49.16
45040;BME280;30778;53.574;7.770;2023-04-01T20:43:03;101210.31;;;1.58;48.74
45040;BME280;30778;53.574;7.770;2023-04-01T20:51:31;101230.72;;;1.19;48.66
45040;BME280;30778;53.574;7.770;2023-04-01T20:59:28;101238.38;;;1.02;49.00
45040;BME280;30778;53.574;7.770;2023-04-01T21:07:40;101248.72;;;1.15;48.90
45040;BME280;30778;53.574;7.770;2023-04-01T21:19:04;101264.16;;;1.08;49.54
45040;BME280;30778;53.574;7.770;2023-04-01T21:28:06;101289.75;;;0.84;49.90
45040;BME280;30778;53.574;7.770;2023-04-01T21:30:28;101299.16;;;0.82;49.69
45040;BME280;30778;53.574;7.770;2023-04-01T21:35:55;101314.41;;;0.60;49.59
45040;BME280;30778;53.574;7.770;2023-04-01T22:05:16;101368.66;;;0.85;48.62
45040;BME280;30778;53.574;7.770;2023-04-01T22:13:23;101380.28;;;0.44;49.48
45040;BME280;30778;53.574;7.770;2023-04-01T22:16:10;101386.41;;;0.59;48.71
45040;BME280;30778;53.574;7.770;2023-04-01T22:19:00;101392.28;;;0.42;49.29
45040;BME280;30778;53.574;7.770;2023-04-01T22:27:06;101401.84;;;0.59;48.70
45040;BME280;30778;53.574;7.770;2023-04-01T22:29:51;101404.19;;;0.36;49.27
45040;BME280;30778;53.574;7.770;2023-04-01T22:32:27;101411.75;;;0.22;49.22
45040;BME280;30778;53.574;7.770;2023-04-01T22:35:42;101419.78;;;0.48;49.12
45040;BME280;30778;53.574;7.770;2023-04-01T22:43:11;101437.59;;;0.34;49.29
45040;BME280;30778;53.574;7.770;2023-04-01T22:51:07;101454.03;;;0.47;48.44
45040;BME280;30778;53.574;7.770;2023-04-01T22:56:33;101462.44;;;0.31;48.74
45040;BME280;30778;53.574;7.770;2023-04-01T22:59:08;101467.41;;;0.18;49.13
45040;BME280;30778;53.574;7.770;2023-04-01T23:01:41;101473.56;;;0.28;49.12
45040;BME280;30778;53.574;7.770;2023-04-01T23:04:12;101481.16;;;0.20;49.33
45040;BME280;30778;53.574;7.770;2023-04-01T23:06:44;101496.03;;;-0.21;49.92
45040;BME280;30778;53.574;7.770;2023-04-01T23:09:18;101493.09;;;0.15;49.35
45040;BME280;30778;53.574;7.770;2023-04-01T23:11:53;101491.34;;;0.14;49.41
45040;BME280;30778;53.574;7.770;2023-04-01T23:24:54;101529.28;;;0.31;49.31
45040;BME280;30778;53.574;7.770;2023-04-01T23:27:30;101530.97;;;0.28;49.20
45040;BME280;30778;53.574;7.770;2023-04-01T23:29:59;101534.13;;;0.09;49.56
45040;BME280;30778;53.574;7.770;2023-04-01T23:32:25;101542.59;;;0.02;49.95
45040;BME280;30778;53.574;7.770;2023-04-01T23:34:57;101547.88;;;0.11;49.34